createdAt,value
2018-07-04T00:02:09.936Z,1.57
2018-07-04T00:04:49.862Z,1.83
2018-07-04T00:07:29.866Z,1.77
2018-07-04T00:10:09.879Z,1.60
2018-07-04T00:12:49.940Z,1.67
2018-07-04T00:15:30.053Z,1.90
2018-07-04T00:18:10.271Z,1.63
2018-07-04T00:20:50.530Z,1.70
2018-07-04T00:23:30.689Z,1.93
2018-07-04T00:26:10.968Z,1.87
2018-07-04T00:28:51.059Z,1.87
2018-07-04T00:31:30.978Z,1.70
2018-07-04T00:34:11.161Z,1.90
2018-07-04T00:36:51.353Z,1.93
2018-07-04T00:39:31.674Z,1.80
2018-07-04T00:42:11.756Z,1.90
2018-07-04T00:44:51.819Z,2.10
2018-07-04T00:47:31.927Z,2.13
2018-07-04T00:50:12.195Z,2.07
2018-07-04T00:52:52.331Z,1.77
2018-07-04T00:55:35.758Z,1.80
2018-07-04T00:58:16.115Z,1.83
2018-07-04T01:00:56.139Z,2.17
2018-07-04T01:03:36.272Z,1.80
2018-07-04T01:06:16.819Z,1.80
2018-07-04T01:08:57.102Z,1.77
2018-07-04T01:11:37.287Z,2.07
2018-07-04T01:14:17.391Z,2.10
2018-07-04T01:16:57.602Z,2.20
2018-07-04T01:19:38.125Z,2.10
2018-07-04T01:22:18.319Z,2.10
2018-07-04T01:24:58.610Z,2.10
2018-07-04T01:27:38.751Z,2.20
2018-07-04T01:30:18.810Z,2.53
2018-07-04T01:32:58.885Z,2.23
2018-07-04T01:35:38.856Z,2.33
2018-07-04T01:38:18.836Z,2.10
2018-07-04T01:40:58.944Z,2.20
2018-07-04T01:43:39.190Z,2.17
2018-07-04T01:46:19.373Z,2.13
2018-07-04T01:48:59.637Z,2.53
2018-07-04T01:51:39.822Z,1.90
2018-07-04T01:54:20.044Z,2.17
2018-07-04T01:56:59.960Z,2.20
2018-07-04T01:59:39.948Z,2.40
2018-07-04T02:02:20.174Z,2.00
2018-07-04T02:05:00.300Z,2.10
2018-07-04T02:07:40.359Z,2.30
2018-07-04T02:10:20.434Z,2.20
2018-07-04T02:13:00.624Z,2.20
2018-07-04T02:15:40.766Z,2.20
2018-07-04T02:18:21.199Z,2.00
2018-07-04T02:21:01.568Z,2.23
2018-07-04T02:23:41.795Z,2.27
2018-07-04T02:26:22.075Z,2.30
2018-07-04T02:29:02.334Z,2.30
2018-07-04T02:31:42.510Z,2.10
2018-07-04T02:34:26.050Z,2.20
2018-07-04T02:37:00.009Z,2.30
2018-07-04T02:39:40.164Z,2.30
2018-07-04T02:42:20.292Z,2.17
2018-07-04T02:45:00.539Z,2.17
2018-07-04T02:47:40.624Z,2.23
2018-07-04T02:50:20.712Z,2.20
2018-07-04T02:53:00.803Z,2.40
2018-07-04T02:55:40.648Z,2.33
2018-07-04T02:58:20.796Z,2.30
2018-07-04T03:01:01.048Z,2.33
2018-07-04T03:03:41.176Z,2.30
2018-07-04T03:06:21.363Z,2.73
2018-07-04T03:09:01.569Z,2.30
2018-07-04T03:11:41.767Z,2.47
2018-07-04T03:14:21.844Z,2.13
2018-07-04T03:17:02.044Z,2.20
2018-07-04T03:19:42.284Z,2.20
2018-07-04T03:22:22.369Z,2.13
2018-07-04T03:25:02.602Z,2.17
2018-07-04T03:27:42.663Z,2.33
2018-07-04T03:30:22.768Z,2.40
2018-07-04T03:33:04.124Z,2.50
2018-07-04T03:35:44.095Z,2.30
2018-07-04T03:38:24.223Z,2.13
2018-07-04T03:41:04.363Z,2.57
2018-07-04T03:43:44.616Z,2.40
2018-07-04T03:46:24.802Z,2.47
2018-07-04T03:49:04.871Z,2.10
2018-07-04T03:51:45.139Z,2.30
2018-07-04T03:54:25.277Z,2.33
2018-07-04T03:57:05.415Z,2.23
2018-07-04T03:59:45.514Z,2.63
2018-07-04T04:02:25.499Z,2.87
2018-07-04T04:05:05.816Z,2.50
2018-07-04T04:07:45.944Z,2.70
2018-07-04T04:10:25.970Z,2.50
2018-07-04T04:13:06.167Z,3.03
2018-07-04T04:15:46.259Z,2.63
2018-07-04T04:18:26.355Z,2.67
2018-07-04T04:21:06.522Z,2.83
2018-07-04T04:23:46.719Z,3.00
2018-07-04T04:26:26.995Z,3.00
2018-07-04T04:29:07.219Z,2.93
2018-07-04T04:31:47.250Z,3.00
2018-07-04T04:34:21.225Z,3.10
2018-07-04T04:37:01.727Z,2.90
2018-07-04T04:39:41.800Z,2.90
2018-07-04T04:42:22.064Z,2.60
2018-07-04T04:45:02.203Z,3.30
2018-07-04T04:47:42.236Z,2.97
2018-07-04T04:50:22.339Z,3.53
2018-07-04T04:53:02.542Z,3.33
2018-07-04T04:55:42.624Z,3.77
2018-07-04T04:58:22.819Z,3.40
2018-07-04T05:01:02.823Z,3.30
2018-07-04T05:03:43.286Z,3.30
2018-07-04T05:06:23.595Z,3.60
2018-07-04T05:09:03.986Z,3.50
2018-07-04T05:11:44.001Z,3.73
2018-07-04T05:14:24.078Z,3.80
2018-07-04T05:17:03.954Z,4.33
2018-07-04T05:19:43.913Z,4.13
2018-07-04T05:22:23.863Z,4.40
2018-07-04T05:25:03.936Z,4.17
2018-07-04T05:27:44.255Z,4.13
2018-07-04T05:30:24.279Z,4.43
2018-07-04T05:33:04.131Z,4.40
2018-07-04T05:35:44.151Z,3.90
2018-07-04T05:38:24.500Z,4.00
2018-07-04T05:41:04.524Z,3.87
2018-07-04T05:43:44.716Z,3.67
2018-07-04T05:46:24.869Z,3.40
2018-07-04T05:49:05.121Z,3.90
2018-07-04T05:51:45.172Z,3.73
2018-07-04T05:54:30.419Z,3.30
2018-07-04T05:57:10.583Z,3.50
2018-07-04T05:59:50.953Z,3.60
2018-07-04T06:02:30.998Z,3.30
2018-07-04T06:05:10.904Z,3.60
2018-07-04T06:07:50.954Z,3.17
2018-07-04T06:10:31.070Z,3.60
2018-07-04T06:13:11.227Z,3.43
2018-07-04T06:16:03.964Z,3.50
2018-07-04T06:18:44.066Z,3.43
2018-07-04T06:21:24.107Z,3.60
2018-07-04T06:24:04.392Z,3.40
2018-07-04T06:26:44.552Z,3.87
2018-07-04T06:29:24.464Z,3.40
2018-07-04T06:32:04.755Z,4.50
2018-07-04T06:34:46.308Z,3.30
2018-07-04T06:37:26.540Z,3.60
2018-07-04T06:39:54.192Z,3.60
2018-07-04T06:42:21.910Z,3.40
2018-07-04T06:44:49.636Z,3.53
2018-07-04T06:47:17.305Z,3.90
2018-07-04T06:49:45.040Z,3.50
2018-07-04T06:52:13.351Z,4.50
2018-07-04T06:54:41.046Z,4.97
2018-07-04T06:57:08.752Z,4.40
2018-07-04T06:59:36.439Z,4.77
2018-07-04T07:02:07.713Z,5.27
2018-07-04T07:04:48.944Z,4.67
2018-07-04T07:07:28.802Z,5.33
2018-07-04T07:16:01.676Z,4.93
2018-07-04T07:18:41.744Z,4.80
2018-07-04T07:21:21.962Z,5.03
2018-07-04T07:24:02.046Z,4.30
2018-07-04T07:26:42.108Z,4.43
2018-07-04T07:29:22.385Z,3.87
2018-07-04T07:32:02.563Z,4.40
2018-07-04T07:34:42.796Z,4.07
2018-07-04T07:37:22.903Z,4.03
2018-07-04T07:40:02.959Z,4.13
2018-07-04T07:42:37.062Z,3.80
2018-07-04T07:45:17.203Z,4.03
2018-07-04T07:47:57.264Z,3.87
2018-07-04T07:50:37.464Z,4.03
2018-07-04T07:53:17.460Z,3.90
2018-07-04T07:55:57.690Z,4.10
2018-07-04T07:58:37.812Z,3.77
2018-07-04T08:01:17.930Z,3.80
2018-07-04T08:03:58.256Z,3.77
2018-07-04T08:06:38.499Z,4.30
2018-07-04T08:09:18.739Z,3.80
2018-07-04T08:11:59.070Z,3.70
2018-07-04T08:14:39.275Z,3.50
2018-07-04T08:17:19.484Z,3.90
2018-07-04T08:19:53.417Z,3.70
2018-07-04T08:22:33.581Z,3.70
2018-07-04T08:25:13.984Z,3.40
2018-07-04T08:27:54.198Z,4.00
2018-07-04T08:30:34.274Z,4.17
2018-07-04T08:33:14.309Z,4.03
2018-07-04T08:35:54.476Z,4.00
2018-07-04T08:38:35.251Z,4.40
2018-07-04T08:41:15.335Z,3.70
2018-07-04T08:43:55.322Z,3.87
2018-07-04T08:46:35.536Z,4.07
2018-07-04T08:49:15.691Z,4.60
2018-07-04T08:51:56.031Z,3.97
2018-07-04T08:54:36.052Z,4.57
2018-07-04T08:57:16.243Z,5.10
2018-07-04T08:59:56.345Z,4.00
2018-07-04T09:02:30.562Z,3.30
2018-07-04T09:05:10.497Z,4.10
2018-07-04T09:07:50.742Z,4.40
2018-07-04T09:10:30.820Z,3.23
2018-07-04T09:13:11.078Z,3.77
2018-07-04T09:15:51.295Z,4.17
2018-07-04T09:18:32.285Z,3.87
2018-07-04T09:21:12.446Z,3.53
2018-07-04T09:23:52.531Z,2.83
2018-07-04T09:26:32.834Z,2.30
2018-07-04T09:29:14.699Z,1.97
2018-07-04T09:31:54.840Z,1.80
2018-07-04T09:34:34.947Z,1.80
2018-07-04T09:37:15.123Z,1.70
2018-07-04T09:39:55.156Z,1.50
2018-07-04T09:42:35.313Z,1.40
2018-07-04T09:45:15.551Z,1.50
2018-07-04T09:47:55.707Z,1.40
2018-07-04T09:50:35.970Z,1.67
2018-07-04T09:53:16.559Z,1.60
2018-07-04T09:55:56.724Z,1.57
2018-07-04T09:58:36.945Z,1.30
2018-07-04T10:01:24.169Z,1.37
2018-07-04T10:04:04.307Z,1.50
2018-07-04T10:06:45.046Z,1.50
2018-07-04T10:09:25.243Z,1.30
2018-07-04T10:12:07.338Z,1.60
2018-07-04T10:14:47.869Z,1.47
2018-07-04T10:17:27.914Z,1.33
2018-07-04T10:20:08.095Z,1.40
2018-07-04T10:22:50.529Z,1.40
2018-07-04T10:25:32.799Z,1.50
2018-07-04T10:28:12.923Z,1.67
2018-07-04T10:30:52.973Z,1.50
2018-07-04T10:33:33.206Z,1.47
2018-07-04T10:36:13.372Z,1.63
2018-07-04T10:38:53.368Z,1.70
2018-07-04T10:41:33.528Z,1.47
2018-07-04T10:44:13.660Z,1.53
2018-07-04T10:46:53.785Z,1.57
2018-07-04T10:49:34.035Z,1.30
2018-07-04T10:52:14.275Z,1.30
2018-07-04T10:54:54.491Z,1.37
2018-07-04T10:57:34.520Z,1.80
2018-07-04T11:00:14.588Z,1.33
2018-07-04T11:02:54.748Z,1.37
2018-07-04T11:05:34.808Z,1.30
2018-07-04T11:08:15.065Z,1.30
2018-07-04T11:10:55.248Z,1.30
2018-07-04T11:13:35.488Z,1.80
2018-07-04T11:16:15.656Z,1.30
2018-07-04T11:18:55.703Z,1.43
2018-07-04T11:21:35.725Z,1.52
2018-07-04T11:24:15.898Z,1.30
2018-07-04T11:26:56.023Z,1.50
2018-07-04T11:29:36.251Z,1.47
2018-07-04T11:32:16.367Z,1.30
2018-07-04T11:34:56.584Z,1.47
2018-07-04T11:37:36.628Z,1.70
2018-07-04T11:40:16.598Z,1.45
2018-07-04T11:42:56.681Z,1.50
2018-07-04T11:45:36.746Z,1.37
2018-07-04T11:48:04.459Z,1.42
2018-07-04T11:50:32.321Z,1.42
2018-07-04T11:53:15.050Z,1.40
2018-07-04T11:55:42.825Z,1.50
2018-07-04T11:58:10.617Z,1.32
2018-07-04T12:00:38.407Z,1.85
2018-07-04T12:03:14.891Z,1.40
2018-07-04T12:05:55.565Z,1.35
2018-07-04T12:08:23.334Z,1.50
2018-07-04T12:11:01.437Z,1.70
2018-07-04T12:13:29.631Z,1.32
2018-07-04T12:15:57.948Z,1.45
2018-07-04T12:18:25.607Z,1.65
2018-07-04T12:20:53.315Z,1.50
2018-07-04T12:23:20.963Z,1.57
2018-07-04T12:25:48.679Z,1.40
2018-07-04T12:28:16.410Z,1.50
2018-07-04T12:30:44.098Z,1.57
2018-07-04T12:33:11.778Z,1.45
2018-07-04T12:35:39.516Z,1.57
2018-07-04T12:38:07.213Z,1.50
2018-07-04T12:40:34.939Z,1.50
2018-07-04T12:43:02.615Z,1.27
2018-07-04T12:45:30.331Z,1.50
2018-07-04T12:47:58.011Z,1.45
2018-07-04T12:50:26.558Z,1.40
2018-07-04T12:52:54.523Z,1.57
2018-07-04T12:55:36.317Z,1.45
2018-07-04T12:58:17.083Z,1.27
2018-07-04T13:00:57.338Z,1.70
2018-07-04T13:03:37.424Z,1.50
2018-07-04T13:06:17.796Z,1.50
2018-07-04T13:08:57.820Z,1.50
2018-07-04T13:11:38.015Z,1.55
2018-07-04T13:14:18.093Z,1.40
2018-07-04T13:16:58.135Z,1.40
2018-07-04T13:19:39.312Z,1.25
2018-07-04T13:22:19.387Z,1.50
2018-07-04T13:24:59.439Z,1.57
2018-07-04T13:27:39.647Z,1.52
2018-07-04T13:30:19.841Z,1.60
2018-07-04T13:33:00.688Z,1.60
2018-07-04T13:35:40.828Z,1.72
2018-07-04T13:38:21.560Z,1.60
2018-07-04T13:41:01.711Z,1.70
2018-07-04T13:43:41.799Z,1.90
2018-07-04T13:46:21.954Z,1.62
2018-07-04T13:49:02.146Z,1.60
2018-07-04T13:51:42.902Z,1.45
2018-07-04T13:54:23.064Z,1.50
2018-07-04T13:57:03.320Z,1.62
2018-07-04T13:59:43.335Z,1.98
2018-07-04T14:02:23.511Z,1.80
2018-07-04T14:05:03.900Z,1.60
2018-07-04T14:07:44.043Z,1.67
2018-07-04T14:10:24.258Z,1.70
2018-07-04T14:13:04.414Z,1.80
2018-07-04T14:15:45.669Z,3.12
2018-07-04T14:18:26.786Z,2.83
2018-07-04T14:21:07.006Z,2.50
2018-07-04T14:23:47.190Z,3.05
2018-07-04T14:26:27.337Z,2.83
2018-07-04T14:29:07.759Z,2.95
2018-07-04T14:31:47.907Z,2.90
2018-07-04T14:34:28.345Z,3.20
2018-07-04T14:37:08.575Z,2.80
2018-07-04T14:39:48.754Z,2.90
2018-07-04T14:42:28.881Z,3.12
2018-07-04T14:45:12.272Z,2.65
2018-07-04T14:47:52.515Z,2.80
2018-07-04T14:50:32.637Z,2.80
2018-07-04T14:53:12.776Z,2.85
2018-07-04T14:55:52.955Z,3.15
2018-07-04T14:58:33.136Z,3.05
2018-07-04T15:01:13.304Z,2.62
2018-07-04T15:03:53.332Z,3.30
2018-07-04T15:06:33.368Z,2.70
2018-07-04T15:09:13.478Z,2.90
2018-07-04T15:11:53.510Z,2.75
2018-07-04T15:14:33.659Z,2.98
2018-07-04T15:17:13.729Z,2.90
2018-07-04T15:19:54.023Z,3.02
2018-07-04T15:22:34.059Z,2.85
2018-07-04T15:25:14.604Z,2.60
2018-07-04T15:27:55.770Z,2.90
2018-07-04T15:30:35.974Z,3.08
2018-07-04T15:33:16.039Z,2.75
2018-07-04T15:35:56.164Z,2.98
2018-07-04T15:38:36.406Z,2.92
2018-07-04T15:41:17.048Z,2.80
2018-07-04T15:43:57.111Z,2.98
2018-07-04T15:46:37.079Z,2.70
2018-07-04T15:49:19.072Z,2.85
2018-07-04T15:52:00.304Z,2.72
2018-07-04T15:54:40.272Z,3.00
2018-07-04T15:57:20.474Z,3.30
2018-07-04T16:00:00.698Z,2.72
2018-07-04T16:02:40.949Z,3.10
2018-07-04T16:05:21.238Z,3.00
2018-07-04T16:08:01.296Z,3.00
2018-07-04T16:10:41.312Z,3.10
2018-07-04T16:13:21.312Z,3.42
2018-07-04T16:16:01.531Z,3.25
2018-07-04T16:18:41.591Z,3.45
2018-07-04T16:21:21.815Z,2.98
2018-07-04T16:24:01.815Z,3.15
2018-07-04T16:26:41.876Z,2.80
2018-07-04T16:29:22.106Z,3.20
2018-07-04T16:32:02.255Z,3.00
2018-07-04T16:34:42.243Z,3.00
2018-07-04T16:37:22.215Z,3.07
2018-07-04T16:40:02.588Z,3.05
2018-07-04T16:42:42.791Z,2.67
2018-07-04T16:45:23.024Z,3.00
2018-07-04T16:48:03.124Z,2.30
2018-07-04T16:50:43.765Z,2.30
2018-07-04T16:53:24.028Z,2.23
2018-07-04T16:56:04.416Z,1.97
2018-07-04T16:58:44.741Z,4.57
2018-07-04T17:01:31.699Z,16.10
2018-07-04T17:04:11.759Z,4.27
2018-07-04T17:06:51.935Z,3.20
2018-07-04T17:09:32.171Z,5.27
2018-07-04T17:12:12.271Z,3.83
2018-07-04T17:14:52.447Z,3.90
2018-07-04T17:17:32.719Z,6.60
2018-07-04T17:20:13.055Z,7.27
2018-07-04T17:22:53.305Z,6.27
2018-07-04T17:25:34.551Z,4.23
2018-07-04T17:28:14.728Z,4.20
2018-07-04T17:30:54.842Z,3.67
2018-07-04T17:33:34.824Z,4.17
2018-07-04T17:36:15.140Z,3.87
2018-07-04T17:38:49.100Z,3.80
2018-07-04T17:41:29.379Z,3.80
2018-07-04T17:44:09.509Z,3.90
2018-07-04T17:46:49.636Z,4.37
2018-07-04T17:49:29.784Z,4.07
2018-07-04T17:52:09.987Z,3.87
2018-07-04T17:54:50.080Z,4.20
2018-07-04T17:57:30.267Z,4.80
2018-07-04T18:00:10.240Z,6.33
2018-07-04T18:02:50.347Z,5.20
2018-07-04T18:05:30.535Z,5.70
2018-07-04T18:08:04.616Z,4.10
2018-07-04T18:10:44.657Z,4.70
2018-07-04T18:13:24.902Z,4.40
2018-07-04T18:16:05.000Z,4.17
2018-07-04T18:18:45.137Z,4.67
2018-07-04T18:21:27.350Z,4.40
2018-07-04T18:24:08.779Z,5.00
2018-07-04T18:26:49.234Z,4.23
2018-07-04T18:29:29.326Z,4.90
2018-07-04T18:32:09.437Z,4.40
2018-07-04T18:34:49.634Z,4.20
2018-07-04T18:37:30.404Z,4.37
2018-07-04T18:40:10.568Z,4.17
2018-07-04T18:42:50.776Z,4.20
2018-07-04T18:45:31.402Z,3.80
2018-07-04T18:48:11.529Z,3.80
2018-07-04T18:50:51.660Z,3.50
2018-07-04T18:53:31.812Z,3.53
2018-07-04T18:56:11.747Z,3.50
2018-07-04T18:58:52.219Z,3.30
2018-07-04T19:01:32.570Z,3.60
2018-07-04T19:04:12.710Z,3.20
2018-07-04T19:06:52.954Z,3.30
2018-07-04T19:09:34.286Z,3.30
2018-07-04T19:12:08.410Z,3.30
2018-07-04T19:17:41.647Z,3.80
2018-07-04T19:20:21.796Z,3.33
2018-07-04T19:23:01.844Z,3.50
2018-07-04T19:25:42.065Z,3.63
2018-07-04T19:28:22.322Z,3.83
2018-07-04T19:31:03.123Z,3.80
2018-07-04T19:33:43.193Z,3.97
2018-07-04T19:36:24.008Z,3.83
2018-07-04T19:39:04.936Z,4.27
2018-07-04T19:41:45.447Z,4.10
2018-07-04T19:44:25.554Z,4.70
2018-07-04T19:47:05.652Z,4.67
2018-07-04T19:49:45.843Z,4.63
2018-07-04T19:52:25.798Z,4.70
2018-07-04T19:55:06.068Z,5.27
2018-07-04T19:57:48.404Z,6.83
2018-07-04T20:00:28.754Z,7.20
2018-07-04T20:03:08.851Z,6.10
2018-07-04T20:05:49.111Z,5.87
2018-07-04T20:08:29.349Z,5.60
2018-07-04T20:11:09.389Z,5.50
2018-07-04T20:13:49.415Z,5.17
2018-07-04T20:16:29.526Z,5.73
2018-07-04T20:19:09.808Z,6.20
2018-07-04T20:21:50.006Z,5.53
2018-07-04T20:24:29.986Z,5.87
2018-07-04T20:27:10.001Z,6.73
2018-07-04T20:29:50.294Z,8.60
2018-07-04T20:32:30.433Z,7.90
2018-07-04T20:35:10.999Z,5.83
2018-07-04T20:37:51.109Z,5.20
2018-07-04T20:40:31.199Z,6.70
2018-07-04T20:43:12.662Z,5.93
2018-07-04T20:45:55.258Z,5.67
2018-07-04T20:48:35.507Z,5.13
2018-07-04T20:51:15.566Z,4.90
2018-07-04T20:53:56.194Z,5.43
2018-07-04T20:56:36.217Z,4.90
2018-07-04T20:59:16.478Z,5.20
2018-07-04T21:01:56.751Z,5.33
2018-07-04T21:04:37.376Z,5.60
2018-07-04T21:07:17.792Z,5.40
2018-07-04T21:09:57.963Z,5.10
2018-07-04T21:12:38.123Z,4.53
2018-07-04T21:15:18.911Z,5.03
2018-07-04T21:17:53.042Z,4.80
2018-07-04T21:20:33.079Z,4.50
2018-07-04T21:23:13.940Z,5.23
2018-07-04T21:25:53.966Z,4.97
2018-07-04T21:28:34.246Z,4.80
2018-07-04T21:31:14.455Z,5.37
2018-07-04T21:33:54.773Z,5.10
2018-07-04T21:36:29.223Z,4.77
2018-07-04T21:39:09.411Z,4.83
2018-07-04T21:41:50.819Z,5.23
2018-07-04T21:44:30.923Z,5.57
2018-07-04T21:47:11.100Z,5.63
2018-07-04T21:49:51.347Z,5.40
2018-07-04T21:52:31.307Z,5.43
2018-07-04T21:55:11.493Z,5.30
2018-07-04T21:57:51.484Z,5.43
2018-07-04T22:00:25.606Z,5.00
2018-07-04T22:03:05.680Z,5.60
2018-07-04T22:05:45.739Z,5.10
2018-07-04T22:08:26.008Z,5.30
2018-07-04T22:11:06.168Z,5.13
2018-07-04T22:13:46.362Z,4.57
2018-07-04T22:16:26.604Z,5.00
2018-07-04T22:19:06.715Z,5.20
2018-07-04T22:21:46.620Z,5.40
2018-07-04T22:24:26.680Z,5.47
2018-07-04T22:27:06.798Z,5.57
2018-07-04T22:29:46.938Z,5.37
2018-07-04T22:32:27.092Z,5.87
2018-07-04T22:35:07.414Z,6.23
2018-07-04T22:37:47.616Z,5.60
2018-07-04T22:40:28.467Z,6.00
2018-07-04T22:43:08.480Z,6.00
2018-07-04T22:45:48.636Z,5.73
2018-07-04T22:48:28.922Z,5.87
2018-07-04T22:51:09.008Z,5.70
2018-07-04T22:53:49.109Z,6.57
2018-07-04T22:56:29.231Z,6.30
2018-07-04T22:59:09.434Z,7.43
2018-07-04T23:01:49.638Z,7.17
2018-07-04T23:04:29.730Z,7.67
2018-07-04T23:07:09.775Z,6.90
2018-07-04T23:09:49.871Z,7.87
2018-07-04T23:12:30.183Z,7.87
2018-07-04T23:15:10.335Z,7.27
2018-07-04T23:17:50.435Z,7.70
2018-07-04T23:20:30.529Z,8.00
2018-07-04T23:23:10.718Z,8.27
2018-07-04T23:25:50.821Z,7.80
2018-07-04T23:28:31.019Z,8.20
2018-07-04T23:31:11.036Z,7.63
2018-07-04T23:33:51.094Z,7.90
2018-07-04T23:36:31.176Z,7.63
2018-07-04T23:39:11.332Z,7.27
2018-07-04T23:41:51.377Z,7.07
2018-07-04T23:44:31.624Z,7.30
2018-07-04T23:47:11.808Z,8.13
2018-07-04T23:49:51.991Z,7.70
2018-07-04T23:52:32.219Z,7.33
2018-07-04T23:55:12.174Z,7.53
2018-07-04T23:57:52.432Z,7.67
